createdAt,value
2018-08-24T00:01:51.394Z,18.80
2018-08-24T00:04:19.989Z,18.80
2018-08-24T00:06:48.619Z,18.70
2018-08-24T00:09:21.344Z,18.70
2018-08-24T00:11:49.924Z,18.60
2018-08-24T00:14:18.474Z,18.50
2018-08-24T00:16:47.054Z,18.50
2018-08-24T00:19:16.796Z,18.50
2018-08-24T00:21:46.474Z,18.50
2018-08-24T00:24:15.589Z,18.50
2018-08-24T00:26:44.165Z,18.50
2018-08-24T00:29:12.765Z,18.50
2018-08-24T00:31:41.432Z,18.50
2018-08-24T00:34:10.008Z,18.40
2018-08-24T00:36:38.672Z,18.40
2018-08-24T00:39:09.032Z,18.40
2018-08-24T00:41:37.633Z,18.40
2018-08-24T00:44:06.209Z,18.30
2018-08-24T00:46:34.738Z,18.20
2018-08-24T00:49:03.389Z,18.20
2018-08-24T00:51:32.238Z,18.20
2018-08-24T00:54:00.840Z,18.20
2018-08-24T00:56:29.393Z,18.10
2018-08-24T00:58:58.163Z,18.00
2018-08-24T01:01:26.849Z,18.00
2018-08-24T01:03:55.481Z,18.00
2018-08-24T01:06:25.020Z,18.00
2018-08-24T01:08:53.565Z,17.90
2018-08-24T01:11:26.299Z,17.90
2018-08-24T01:13:54.865Z,17.80
2018-08-24T01:16:28.585Z,17.80
2018-08-24T01:18:57.139Z,17.70
2018-08-24T01:21:25.753Z,17.80
2018-08-24T01:23:54.334Z,17.80
2018-08-24T01:26:24.247Z,17.80
2018-08-24T01:28:53.629Z,17.80
2018-08-24T01:31:22.257Z,17.80
2018-08-24T01:33:50.806Z,17.70
2018-08-24T01:36:19.393Z,17.70
2018-08-24T01:38:47.955Z,17.70
2018-08-24T01:41:16.528Z,17.70
2018-08-24T01:43:45.109Z,17.60
2018-08-24T01:46:15.006Z,17.60
2018-08-24T01:48:43.523Z,17.50
2018-08-24T01:51:12.185Z,17.50
2018-08-24T01:53:40.751Z,17.40
2018-08-24T01:56:09.317Z,17.40
2018-08-24T01:58:37.870Z,17.50
2018-08-24T02:01:06.460Z,17.40
2018-08-24T02:03:34.978Z,17.40
2018-08-24T02:06:06.690Z,17.50
2018-08-24T02:08:36.452Z,17.40
2018-08-24T02:11:10.581Z,17.40
2018-08-24T02:13:45.069Z,17.40
2018-08-24T02:16:13.625Z,17.40
2018-08-24T02:18:47.358Z,17.40
2018-08-24T02:21:21.290Z,17.40
2018-08-24T02:23:49.832Z,17.40
2018-08-24T02:26:18.444Z,17.40
2018-08-24T02:28:47.009Z,17.40
2018-08-24T02:31:15.773Z,17.40
2018-08-24T02:33:44.278Z,17.40
2018-08-24T02:36:12.840Z,17.50
2018-08-24T02:38:41.507Z,17.40
2018-08-24T02:41:10.080Z,17.40
2018-08-24T02:43:38.648Z,17.30
2018-08-24T02:46:07.253Z,17.30
2018-08-24T02:48:35.917Z,17.30
2018-08-24T02:51:04.526Z,17.30
2018-08-24T02:53:33.185Z,17.30
2018-08-24T02:56:01.789Z,17.40
2018-08-24T02:58:30.434Z,17.40
2018-08-24T03:00:58.979Z,17.50
2018-08-24T03:03:27.565Z,17.50
2018-08-24T03:05:56.113Z,17.60
2018-08-24T03:08:24.762Z,17.60
2018-08-24T03:10:53.268Z,17.70
2018-08-24T03:13:21.848Z,17.60
2018-08-24T03:15:50.400Z,17.70
2018-08-24T03:18:18.989Z,17.60
2018-08-24T03:20:47.527Z,17.30
2018-08-24T03:23:16.094Z,17.10
2018-08-24T03:25:44.641Z,17.10
2018-08-24T03:28:13.189Z,17.20
2018-08-24T03:30:41.736Z,17.30
2018-08-24T03:33:10.317Z,17.30
2018-08-24T03:35:38.910Z,17.40
2018-08-24T03:38:07.477Z,17.50
2018-08-24T03:40:36.043Z,17.50
2018-08-24T03:43:04.629Z,17.50
2018-08-24T03:45:33.208Z,17.50
2018-08-24T03:48:01.769Z,17.60
2018-08-24T03:50:30.393Z,17.70
2018-08-24T03:52:59.030Z,17.70
2018-08-24T03:55:32.021Z,17.60
2018-08-24T03:58:00.692Z,17.70
2018-08-24T04:00:29.377Z,17.70
2018-08-24T04:02:57.971Z,17.70
2018-08-24T04:05:26.505Z,17.80
2018-08-24T04:07:55.065Z,17.90
2018-08-24T04:10:25.086Z,17.90
2018-08-24T04:12:54.275Z,17.90
2018-08-24T04:15:22.908Z,17.80
2018-08-24T04:17:51.451Z,17.70
2018-08-24T04:20:20.002Z,17.70
2018-08-24T04:22:48.589Z,17.80
2018-08-24T04:25:17.877Z,17.80
2018-08-24T04:27:46.440Z,17.80
2018-08-24T04:30:15.241Z,17.80
2018-08-24T04:32:43.917Z,17.70
2018-08-24T04:35:12.526Z,17.70
2018-08-24T04:37:41.096Z,17.70
2018-08-24T04:40:09.692Z,17.70
2018-08-24T04:42:38.248Z,17.80
2018-08-24T04:45:07.230Z,17.70
2018-08-24T04:47:35.899Z,17.80
2018-08-24T04:50:04.794Z,17.80
2018-08-24T04:52:33.387Z,17.80
2018-08-24T04:55:02.014Z,17.90
2018-08-24T04:57:30.615Z,17.80
2018-08-24T04:59:59.177Z,17.90
2018-08-24T05:02:27.916Z,17.90
2018-08-24T05:04:56.581Z,17.90
2018-08-24T05:07:26.011Z,17.90
2018-08-24T05:09:54.589Z,17.90
2018-08-24T05:12:23.141Z,17.70
2018-08-24T05:14:51.669Z,17.80
2018-08-24T05:17:20.212Z,17.90
2018-08-24T05:19:48.854Z,17.90
2018-08-24T05:22:17.440Z,17.90
2018-08-24T05:24:46.140Z,18.00
2018-08-24T05:27:14.721Z,18.10
2018-08-24T05:29:43.293Z,18.00
2018-08-24T05:32:11.938Z,18.00
2018-08-24T05:34:40.623Z,17.90
2018-08-24T05:37:09.338Z,18.00
2018-08-24T05:39:37.947Z,18.00
2018-08-24T05:42:06.701Z,17.90
2018-08-24T05:44:35.288Z,17.90
2018-08-24T05:47:03.886Z,17.90
2018-08-24T05:49:32.477Z,18.10
2018-08-24T05:52:01.094Z,18.00
2018-08-24T05:54:29.660Z,17.90
2018-08-24T05:56:58.304Z,17.90
2018-08-24T05:59:26.970Z,17.90
2018-08-24T06:01:56.085Z,17.90
2018-08-24T06:04:24.687Z,17.90
2018-08-24T06:06:54.804Z,17.90
2018-08-24T06:09:23.459Z,17.90
2018-08-24T06:11:52.049Z,17.90
2018-08-24T06:14:20.670Z,17.90
2018-08-24T06:16:54.466Z,18.00
2018-08-24T06:19:23.056Z,18.10
2018-08-24T06:21:51.922Z,18.20
2018-08-24T06:24:20.803Z,18.10
2018-08-24T06:26:49.457Z,18.20
2018-08-24T06:29:18.083Z,18.20
2018-08-24T06:31:46.729Z,18.20
2018-08-24T06:34:15.277Z,18.30
2018-08-24T06:36:44.164Z,18.50
2018-08-24T06:39:14.103Z,18.60
2018-08-24T06:41:43.779Z,18.90
2018-08-24T06:44:12.736Z,19.00
2018-08-24T06:46:41.476Z,19.20
2018-08-24T06:49:10.252Z,19.30
2018-08-24T06:51:39.138Z,19.30
2018-08-24T06:54:07.886Z,19.50
2018-08-24T06:56:36.822Z,19.50
2018-08-24T06:59:05.642Z,19.50
2018-08-24T07:01:34.496Z,19.60
2018-08-24T07:04:03.368Z,19.80
2018-08-24T07:06:32.075Z,19.90
2018-08-24T07:09:00.858Z,19.90
2018-08-24T07:11:29.650Z,20.00
2018-08-24T07:13:58.310Z,20.20
2018-08-24T07:16:27.172Z,20.20
2018-08-24T07:18:55.889Z,20.30
2018-08-24T07:21:24.629Z,20.30
2018-08-24T07:23:53.385Z,20.10
2018-08-24T07:26:22.317Z,20.20
2018-08-24T07:28:51.081Z,20.40
2018-08-24T07:31:19.988Z,20.30
2018-08-24T07:33:51.217Z,20.50
2018-08-24T07:36:21.999Z,20.70
2018-08-24T07:38:51.088Z,20.70
2018-08-24T07:41:19.917Z,20.70
2018-08-24T07:43:53.675Z,20.70
2018-08-24T07:46:22.775Z,20.90
2018-08-24T07:48:53.165Z,20.90
2018-08-24T07:51:21.940Z,20.90
2018-08-24T07:53:50.738Z,20.90
2018-08-24T07:56:19.659Z,21.20
2018-08-24T08:01:32.766Z,21.60
2018-08-24T08:04:02.984Z,21.50
2018-08-24T08:06:32.126Z,21.50
2018-08-24T08:09:05.701Z,21.70
2018-08-24T08:14:48.764Z,22.00
2018-08-24T08:17:18.757Z,22.20
2018-08-24T08:19:51.580Z,22.70
2018-08-24T08:22:21.261Z,22.90
2018-08-24T08:29:51.206Z,23.30
2018-08-24T08:32:26.763Z,23.50
2018-08-24T08:34:56.226Z,24.30
2018-08-24T08:37:25.561Z,23.80
2018-08-24T08:39:58.985Z,24.10
2018-08-24T08:42:36.967Z,24.10
2018-08-24T08:45:06.873Z,25.00
2018-08-24T08:47:36.836Z,25.30
2018-08-24T08:50:05.934Z,26.50
2018-08-24T08:52:36.391Z,27.00
2018-08-24T08:55:06.816Z,27.70
2018-08-24T08:57:36.205Z,27.90
2018-08-24T09:00:05.285Z,28.10
2018-08-24T09:02:35.097Z,28.70
2018-08-24T09:05:05.202Z,28.80
2018-08-24T09:07:34.496Z,28.70
2018-08-24T09:10:03.457Z,28.10
2018-08-24T09:12:34.451Z,28.40
2018-08-24T09:15:04.830Z,28.60
2018-08-24T09:17:38.702Z,28.30
2018-08-24T09:20:12.575Z,28.00
2018-08-24T09:23:44.644Z,27.50
2018-08-24T09:26:18.469Z,26.90
2018-08-24T09:28:48.039Z,25.90
2018-08-24T09:31:30.041Z,25.60
2018-08-24T09:34:00.116Z,24.80
2018-08-24T09:36:30.067Z,24.60
2018-08-24T09:38:59.994Z,24.10
2018-08-24T09:41:28.712Z,24.10
2018-08-24T09:44:00.331Z,24.00
2018-08-24T09:46:36.634Z,23.80
2018-08-24T09:49:10.918Z,23.30
2018-08-24T09:51:44.715Z,23.50
2018-08-24T09:54:13.433Z,23.70
2018-08-24T09:56:44.316Z,23.80
2018-08-24T09:59:13.081Z,23.80
2018-08-24T10:01:50.162Z,23.80
2018-08-24T10:04:28.339Z,23.50
2018-08-24T10:07:02.478Z,23.50
2018-08-24T10:09:35.098Z,23.30
2018-08-24T10:12:07.982Z,23.30
2018-08-24T10:14:37.293Z,23.20
2018-08-24T10:17:12.858Z,23.20
2018-08-24T10:19:46.503Z,23.00
2018-08-24T10:22:23.572Z,23.10
2018-08-24T10:24:52.590Z,22.90
2018-08-24T10:27:22.573Z,22.90
2018-08-24T10:29:52.312Z,23.00
2018-08-24T10:32:26.784Z,23.00
2018-08-24T10:34:55.665Z,22.70
2018-08-24T10:37:24.329Z,22.80
2018-08-24T10:39:54.283Z,22.80
2018-08-24T10:42:25.970Z,22.90
2018-08-24T10:45:02.402Z,22.80
2018-08-24T10:47:31.064Z,22.90
2018-08-24T10:49:59.968Z,22.90
2018-08-24T10:52:33.659Z,22.70
2018-08-24T10:55:07.432Z,22.70
2018-08-24T10:57:37.209Z,22.60
2018-08-24T11:00:13.701Z,22.50
2018-08-24T11:02:46.936Z,22.50
2018-08-24T11:05:15.912Z,22.40
2018-08-24T11:07:44.606Z,22.50
2018-08-24T11:10:20.137Z,22.30
2018-08-24T11:12:49.208Z,22.10
2018-08-24T11:15:18.045Z,22.20
2018-08-24T11:17:52.266Z,22.20
2018-08-24T11:20:21.191Z,22.10
2018-08-24T11:22:50.057Z,22.10
2018-08-24T11:25:21.653Z,22.10
2018-08-24T11:27:50.850Z,21.60
2018-08-24T11:30:19.474Z,21.70
2018-08-24T11:32:48.313Z,21.90
2018-08-24T11:35:18.572Z,21.90
2018-08-24T11:37:47.415Z,21.80
2018-08-24T11:40:16.410Z,21.70
2018-08-24T11:42:47.429Z,21.70
2018-08-24T11:45:20.555Z,21.80
2018-08-24T11:47:53.256Z,21.80
2018-08-24T11:50:39.205Z,21.90
2018-08-24T11:53:11.363Z,22.00
2018-08-24T11:55:41.654Z,22.00
2018-08-24T11:58:13.686Z,22.20
2018-08-24T12:00:55.503Z,22.10
2018-08-24T12:03:34.769Z,22.20
2018-08-24T12:06:18.646Z,22.30
2018-08-24T12:08:49.090Z,22.40
2018-08-24T12:11:21.140Z,22.30
2018-08-24T12:13:51.883Z,22.30
2018-08-24T12:16:20.812Z,22.40
2018-08-24T12:18:49.942Z,22.50
2018-08-24T12:21:19.407Z,22.20
2018-08-24T12:23:51.274Z,22.20
2018-08-24T12:26:20.256Z,22.30
2018-08-24T12:28:49.410Z,22.40
2018-08-24T12:31:18.546Z,22.60
2018-08-24T12:33:47.612Z,22.60
2018-08-24T12:36:17.086Z,22.70
2018-08-24T12:38:46.242Z,22.70
2018-08-24T12:41:15.122Z,22.70
2018-08-24T12:43:43.938Z,22.90
2018-08-24T12:46:12.630Z,23.10
2018-08-24T12:48:41.599Z,23.30
2018-08-24T12:51:10.293Z,23.40
2018-08-24T12:53:38.913Z,23.50
2018-08-24T12:56:11.778Z,24.00
2018-08-24T12:58:40.565Z,24.90
2018-08-24T13:01:13.047Z,24.60
2018-08-24T13:03:41.990Z,24.70
2018-08-24T13:06:14.539Z,24.50
2018-08-24T13:08:44.788Z,24.30
2018-08-24T13:11:14.110Z,24.10
2018-08-24T13:13:43.136Z,24.10
2018-08-24T13:16:12.330Z,23.80
2018-08-24T13:18:41.176Z,23.70
2018-08-24T13:21:09.928Z,23.80
2018-08-24T13:23:38.794Z,23.70
2018-08-24T13:29:03.682Z,23.60
2018-08-24T13:31:32.392Z,23.50
2018-08-24T13:34:01.078Z,23.70
2018-08-24T13:36:29.861Z,23.60
2018-08-24T13:38:58.560Z,23.80
2018-08-24T13:41:27.105Z,24.10
2018-08-24T13:43:55.833Z,24.20
2018-08-24T13:46:24.457Z,24.10
2018-08-24T13:48:53.133Z,24.30
2018-08-24T13:51:21.708Z,24.50
2018-08-24T13:53:50.261Z,24.50
2018-08-24T13:56:18.877Z,24.30
2018-08-24T13:58:47.432Z,24.10
2018-08-24T14:01:16.978Z,24.10
2018-08-24T14:03:45.731Z,23.80
2018-08-24T14:06:14.278Z,23.90
2018-08-24T14:08:43.137Z,23.90
2018-08-24T14:11:11.794Z,23.90
2018-08-24T14:13:40.622Z,24.10
2018-08-24T14:16:09.263Z,24.30
2018-08-24T14:18:40.787Z,24.50
2018-08-24T14:21:09.351Z,24.40
2018-08-24T14:23:38.174Z,24.30
2018-08-24T14:26:06.761Z,24.00
2018-08-24T14:28:35.686Z,24.00
2018-08-24T14:31:04.293Z,24.10
2018-08-24T14:33:32.967Z,24.20
2018-08-24T14:36:01.930Z,24.30
2018-08-24T14:38:30.504Z,23.90
2018-08-24T14:40:59.142Z,23.70
2018-08-24T14:43:27.933Z,24.00
2018-08-24T14:45:56.474Z,23.90
2018-08-24T14:48:25.192Z,23.80
2018-08-24T14:50:53.905Z,23.70
2018-08-24T14:53:22.726Z,23.50
2018-08-24T14:55:51.404Z,23.80
2018-08-24T14:58:20.037Z,23.80
2018-08-24T15:00:48.805Z,23.80
2018-08-24T15:03:17.418Z,24.00
2018-08-24T15:05:46.479Z,24.00
2018-08-24T15:08:15.079Z,24.00
2018-08-24T15:10:43.878Z,23.80
2018-08-24T15:13:12.550Z,23.70
2018-08-24T15:15:41.357Z,23.70
2018-08-24T15:18:09.900Z,23.40
2018-08-24T15:20:38.825Z,23.40
2018-08-24T15:23:07.586Z,23.30
2018-08-24T15:25:36.284Z,23.40
2018-08-24T15:28:04.944Z,23.30
2018-08-24T15:30:37.067Z,22.90
2018-08-24T15:33:05.731Z,23.00
2018-08-24T15:35:34.445Z,23.00
2018-08-24T15:38:04.054Z,23.00
2018-08-24T15:40:35.097Z,22.90
2018-08-24T15:43:05.018Z,22.80
2018-08-24T15:45:34.587Z,22.80
2018-08-24T15:48:06.327Z,22.70
2018-08-24T15:50:41.142Z,22.70
2018-08-24T15:53:09.989Z,22.70
2018-08-24T15:55:39.840Z,22.80
2018-08-24T15:58:08.574Z,22.90
2018-08-24T16:00:49.358Z,22.80
2018-08-24T16:03:18.030Z,22.80
2018-08-24T16:08:34.474Z,22.60
2018-08-24T16:11:05.519Z,22.30
2018-08-24T16:13:34.080Z,22.10
2018-08-24T16:16:03.090Z,21.80
2018-08-24T16:18:31.828Z,21.60
2018-08-24T16:21:01.060Z,21.50
2018-08-24T16:23:44.764Z,21.40
2018-08-24T16:26:18.896Z,21.30
2018-08-24T16:28:48.025Z,20.90
2018-08-24T16:31:17.428Z,20.90
2018-08-24T16:33:46.730Z,20.90
2018-08-24T16:36:16.645Z,20.80
2018-08-24T16:38:45.735Z,20.70
2018-08-24T16:41:19.899Z,20.70
2018-08-24T16:43:51.368Z,20.40
2018-08-24T16:46:20.167Z,20.40
2018-08-24T16:49:04.963Z,20.30
2018-08-24T16:55:01.921Z,20.20
2018-08-24T16:57:30.940Z,20.20
2018-08-24T17:00:00.080Z,20.10
2018-08-24T17:02:28.780Z,20.10
2018-08-24T17:04:57.353Z,19.90
2018-08-24T17:07:25.964Z,19.40
2018-08-24T17:09:54.769Z,19.30
2018-08-24T17:12:23.325Z,19.30
2018-08-24T17:14:52.013Z,19.20
2018-08-24T17:17:20.730Z,19.20
2018-08-24T17:19:49.365Z,19.20
2018-08-24T17:22:18.082Z,19.10
2018-08-24T17:24:46.793Z,19.00
2018-08-24T17:27:15.401Z,19.10
2018-08-24T17:29:47.020Z,19.00
2018-08-24T17:32:17.775Z,19.10
2018-08-24T17:34:56.193Z,19.10
2018-08-24T17:37:26.756Z,19.00
2018-08-24T17:40:03.088Z,18.80
2018-08-24T17:42:33.528Z,18.70
2018-08-24T17:45:04.651Z,18.70
2018-08-24T17:47:35.975Z,18.50
2018-08-24T17:50:06.449Z,18.30
2018-08-24T17:52:37.038Z,18.20
2018-08-24T17:55:06.028Z,18.10
2018-08-24T17:57:35.483Z,18.00
2018-08-24T18:00:11.811Z,17.90
2018-08-24T18:02:40.874Z,17.80
2018-08-24T18:05:10.314Z,17.50
2018-08-24T18:07:39.516Z,17.40
2018-08-24T18:10:08.935Z,17.40
2018-08-24T18:12:37.669Z,17.30
2018-08-24T18:15:06.399Z,17.30
2018-08-24T18:17:34.936Z,17.40
2018-08-24T18:20:03.617Z,17.40
2018-08-24T18:22:32.878Z,17.30
2018-08-24T18:25:01.536Z,17.30
2018-08-24T18:27:30.116Z,17.20
2018-08-24T18:29:58.789Z,17.10
2018-08-24T18:32:28.478Z,17.10
2018-08-24T18:34:57.171Z,16.90
2018-08-24T18:37:25.715Z,16.90
2018-08-24T18:39:54.380Z,17.00
2018-08-24T18:42:22.966Z,17.00
2018-08-24T18:44:51.554Z,16.90
2018-08-24T18:47:20.230Z,16.70
2018-08-24T18:49:48.851Z,16.80
2018-08-24T18:52:17.422Z,16.80
2018-08-24T18:54:47.187Z,16.60
2018-08-24T18:57:16.625Z,16.70
2018-08-24T18:59:45.581Z,16.60
2018-08-24T19:02:14.321Z,16.80
2018-08-24T19:04:45.460Z,16.80
2018-08-24T19:07:15.169Z,16.60
2018-08-24T19:09:43.914Z,16.70
2018-08-24T19:12:17.834Z,16.70
2018-08-24T19:14:47.420Z,16.70
2018-08-24T19:17:22.210Z,16.60
2018-08-24T19:20:05.792Z,16.50
2018-08-24T19:22:35.269Z,16.50
2018-08-24T19:25:03.875Z,16.50
2018-08-24T19:27:42.154Z,16.40
2018-08-24T19:30:21.305Z,16.30
2018-08-24T19:33:00.773Z,16.30
2018-08-24T19:38:15.771Z,16.20
2018-08-24T19:43:42.770Z,16.10
2018-08-24T19:46:11.305Z,16.20
2018-08-24T19:48:45.293Z,16.10
2018-08-24T19:51:15.084Z,16.00
2018-08-24T19:53:43.765Z,16.00
2018-08-24T19:56:12.449Z,16.20
2018-08-24T19:58:59.806Z,16.20
2018-08-24T20:01:28.321Z,16.30
2018-08-24T20:03:57.438Z,16.40
2018-08-24T20:07:30.395Z,16.40
2018-08-24T20:10:08.529Z,16.30
2018-08-24T20:12:37.849Z,16.30
2018-08-24T20:15:12.070Z,16.00
2018-08-24T20:17:42.954Z,16.10
2018-08-24T20:20:11.646Z,16.20
2018-08-24T20:22:41.029Z,16.20
2018-08-24T20:25:09.581Z,16.20
2018-08-24T20:27:38.151Z,16.10
2018-08-24T20:30:06.891Z,16.10
2018-08-24T20:32:39.338Z,16.00
2018-08-24T20:35:10.110Z,15.90
2018-08-24T20:37:44.350Z,15.70
2018-08-24T20:40:13.118Z,15.70
2018-08-24T20:42:41.665Z,15.90
2018-08-24T20:48:12.979Z,16.00
2018-08-24T20:50:41.941Z,15.80
2018-08-24T20:53:10.662Z,15.70
2018-08-24T20:55:39.313Z,15.80
2018-08-24T20:58:07.867Z,15.80
2018-08-24T21:00:36.458Z,15.80
2018-08-24T21:03:05.388Z,15.70
2018-08-24T21:05:33.956Z,15.60
2018-08-24T21:08:02.513Z,15.60
2018-08-24T21:10:31.198Z,15.60
2018-08-24T21:12:59.766Z,15.60
2018-08-24T21:15:28.371Z,15.70
2018-08-24T21:17:57.138Z,15.60
2018-08-24T21:20:25.920Z,15.60
2018-08-24T21:22:54.546Z,15.60
2018-08-24T21:25:23.109Z,15.70
2018-08-24T21:27:51.813Z,15.70
2018-08-24T21:30:20.836Z,15.60
2018-08-24T21:32:49.493Z,15.40
2018-08-24T21:35:18.062Z,15.30
2018-08-24T21:37:46.682Z,15.30
2018-08-24T21:40:15.238Z,15.00
2018-08-24T21:42:43.805Z,15.20
2018-08-24T21:45:12.422Z,15.30
2018-08-24T21:47:40.969Z,15.30
2018-08-24T21:50:10.182Z,15.20
2018-08-24T21:52:38.757Z,15.10
2018-08-24T21:55:07.486Z,15.00
2018-08-24T21:57:36.958Z,14.90
2018-08-24T22:00:09.955Z,14.90
2018-08-24T22:02:38.516Z,14.90
2018-08-24T22:05:07.091Z,15.10
2018-08-24T22:07:35.700Z,15.10
2018-08-24T22:10:05.068Z,14.90
2018-08-24T22:12:33.662Z,14.90
2018-08-24T22:15:02.207Z,15.00
2018-08-24T22:17:30.829Z,14.90
2018-08-24T22:19:59.381Z,14.90
2018-08-24T22:22:27.928Z,14.80
2018-08-24T22:24:56.498Z,14.70
2018-08-24T22:27:25.110Z,14.80
2018-08-24T22:29:53.839Z,14.80
2018-08-24T22:32:22.339Z,14.70
2018-08-24T22:34:50.954Z,14.60
2018-08-24T22:37:19.518Z,14.50
2018-08-24T22:39:48.107Z,14.50
2018-08-24T22:42:17.404Z,14.40
2018-08-24T22:44:46.018Z,14.40
2018-08-24T22:47:14.617Z,14.50
2018-08-24T22:49:43.181Z,14.50
2018-08-24T22:52:11.763Z,14.50
2018-08-24T22:54:41.454Z,14.60
2018-08-24T22:57:10.089Z,14.60
2018-08-24T22:59:39.332Z,14.70
2018-08-24T23:02:08.034Z,14.70
2018-08-24T23:04:40.273Z,14.80
2018-08-24T23:10:03.246Z,14.80
2018-08-24T23:12:31.722Z,14.80
2018-08-24T23:15:00.181Z,14.70
2018-08-24T23:17:28.669Z,14.80
2018-08-24T23:19:57.134Z,14.80
2018-08-24T23:22:25.605Z,14.80
2018-08-24T23:24:54.075Z,14.90
2018-08-24T23:27:22.532Z,14.90
2018-08-24T23:29:51.445Z,14.90
2018-08-24T23:32:20.010Z,14.90
2018-08-24T23:34:48.481Z,14.90
2018-08-24T23:37:17.230Z,15.00
2018-08-24T23:39:45.749Z,14.90
2018-08-24T23:42:14.194Z,14.90
2018-08-24T23:44:42.680Z,14.90
2018-08-24T23:47:11.128Z,14.90
2018-08-24T23:49:39.627Z,14.90
2018-08-24T23:52:08.085Z,15.00
2018-08-24T23:54:36.571Z,15.00
2018-08-24T23:57:05.066Z,14.90
2018-08-24T23:59:33.571Z,14.90
